createdAt,value
2023-02-22T00:00:49.457Z,6.49
2023-02-22T00:03:17.958Z,6.51
2023-02-22T00:05:47.489Z,6.52
2023-02-22T00:08:16.808Z,6.51
2023-02-22T00:10:45.691Z,6.52
2023-02-22T00:13:14.838Z,6.48
2023-02-22T00:15:41.513Z,6.47
2023-02-22T00:18:13.675Z,6.39
2023-02-22T00:20:40.985Z,6.42
2023-02-22T00:23:14.276Z,6.36
2023-02-22T00:25:40.936Z,6.35
2023-02-22T00:28:07.969Z,6.32
2023-02-22T00:30:34.734Z,6.39
2023-02-22T00:33:01.804Z,6.33
2023-02-22T00:35:31.212Z,6.31
2023-02-22T00:38:02.326Z,6.30
2023-02-22T00:40:33.267Z,6.28
2023-02-22T00:43:02.286Z,6.27
2023-02-22T00:45:32.018Z,6.30
2023-02-22T00:47:59.440Z,6.31
2023-02-22T00:50:28.487Z,6.30
2023-02-22T00:52:56.957Z,6.28
2023-02-22T00:55:30.012Z,6.24
2023-02-22T00:57:57.537Z,6.25
2023-02-22T01:00:29.216Z,6.20
2023-02-22T01:02:57.189Z,6.17
2023-02-22T01:05:27.271Z,6.15
2023-02-22T01:07:55.887Z,6.13
2023-02-22T01:10:25.216Z,6.08
2023-02-22T01:12:52.688Z,6.11
2023-02-22T01:15:24.047Z,6.13
2023-02-22T01:17:53.543Z,6.01
2023-02-22T01:20:22.872Z,5.91
2023-02-22T01:22:51.078Z,5.95
2023-02-22T01:25:23.631Z,5.93
2023-02-22T01:27:52.526Z,5.89
2023-02-22T01:30:25.405Z,5.89
2023-02-22T01:32:52.998Z,5.78
2023-02-22T01:35:24.919Z,5.75
2023-02-22T01:37:51.831Z,5.75
2023-02-22T01:40:22.817Z,5.75
2023-02-22T01:42:53.006Z,5.78
2023-02-22T01:45:34.643Z,5.80
2023-02-22T01:48:20.207Z,5.76
2023-02-22T01:51:00.476Z,5.75
2023-02-22T01:53:34.576Z,5.74
2023-02-22T01:56:02.949Z,5.72
2023-02-22T01:58:31.802Z,5.69
2023-02-22T02:00:58.681Z,5.73
2023-02-22T02:03:29.731Z,5.73
2023-02-22T02:06:04.059Z,5.72
2023-02-22T02:09:15.755Z,5.71
2023-02-22T02:11:43.319Z,5.70
2023-02-22T02:14:13.858Z,5.67
2023-02-22T02:16:44.158Z,5.62
2023-02-22T02:19:20.538Z,5.58
2023-02-22T02:22:21.676Z,5.62
2023-02-22T02:25:26.509Z,5.59
2023-02-22T02:28:11.569Z,5.57
2023-02-22T02:30:59.561Z,5.58
2023-02-22T02:33:46.404Z,5.52
2023-02-22T02:36:12.861Z,5.51
2023-02-22T02:38:50.486Z,5.52
2023-02-22T02:41:35.596Z,5.56
2023-02-22T02:44:22.640Z,5.60
2023-02-22T02:47:20.090Z,5.60
2023-02-22T02:50:06.924Z,5.63
2023-02-22T02:52:35.641Z,5.62
2023-02-22T02:55:04.720Z,5.61
2023-02-22T02:57:31.150Z,5.63
2023-02-22T02:59:57.933Z,5.65
2023-02-22T03:02:47.420Z,5.65
2023-02-22T03:05:16.943Z,5.67
2023-02-22T03:07:53.626Z,5.66
2023-02-22T03:10:44.437Z,5.66
2023-02-22T03:13:41.951Z,5.64
2023-02-22T03:16:44.204Z,5.65
2023-02-22T03:19:35.573Z,5.63
2023-02-22T03:22:14.859Z,5.58
2023-02-22T03:24:55.968Z,5.56
2023-02-22T03:27:33.826Z,5.60
2023-02-22T03:30:08.505Z,5.58
2023-02-22T03:32:45.753Z,5.58
2023-02-22T03:35:19.305Z,5.57
2023-02-22T03:37:48.980Z,5.56
2023-02-22T03:40:26.193Z,5.60
2023-02-22T03:42:59.448Z,5.57
2023-02-22T03:45:29.298Z,5.57
2023-02-22T03:48:12.172Z,5.54
2023-02-22T03:50:39.275Z,5.48
2023-02-22T03:53:07.428Z,5.46
2023-02-22T03:55:34.914Z,5.47
2023-02-22T03:58:06.878Z,5.42
2023-02-22T04:00:34.832Z,5.46
2023-02-22T04:03:02.549Z,5.43
2023-02-22T04:05:29.126Z,5.48
2023-02-22T04:07:57.260Z,5.45
2023-02-22T04:10:24.559Z,5.45
2023-02-22T04:12:51.427Z,5.41
2023-02-22T04:15:22.086Z,5.36
2023-02-22T04:17:48.775Z,5.34
2023-02-22T04:20:20.795Z,5.34
2023-02-22T04:22:47.675Z,5.32
2023-02-22T04:25:14.942Z,5.29
2023-02-22T04:27:41.804Z,5.26
2023-02-22T04:30:09.994Z,5.28
2023-02-22T04:32:36.526Z,5.26
2023-02-22T04:35:05.049Z,5.25
2023-02-22T04:37:34.948Z,5.20
2023-02-22T04:40:02.231Z,5.20
2023-02-22T04:42:28.949Z,5.13
2023-02-22T04:44:57.691Z,5.12
2023-02-22T04:47:24.438Z,5.14
2023-02-22T04:49:51.196Z,5.12
2023-02-22T04:52:18.864Z,5.14
2023-02-22T04:54:48.912Z,5.17
2023-02-22T04:57:15.501Z,5.13
2023-02-22T04:59:42.069Z,5.14
2023-02-22T05:02:10.153Z,5.15
2023-02-22T05:04:40.660Z,5.13
2023-02-22T05:07:07.170Z,5.11
2023-02-22T05:09:36.264Z,5.07
2023-02-22T05:12:02.733Z,5.07
2023-02-22T05:14:29.616Z,5.00
2023-02-22T05:16:59.463Z,5.02
2023-02-22T05:19:26.201Z,4.97
2023-02-22T05:21:52.678Z,5.00
2023-02-22T05:24:21.635Z,4.96
2023-02-22T05:26:53.247Z,4.99
2023-02-22T05:29:21.029Z,4.96
2023-02-22T05:31:47.598Z,4.93
2023-02-22T05:34:15.695Z,4.91
2023-02-22T05:36:42.425Z,4.91
2023-02-22T05:39:09.195Z,4.89
2023-02-22T05:41:35.816Z,4.88
2023-02-22T05:44:03.364Z,4.90
2023-02-22T05:46:30.158Z,4.93
2023-02-22T05:48:57.040Z,4.91
2023-02-22T05:51:23.956Z,4.91
2023-02-22T05:53:54.539Z,4.87
2023-02-22T05:56:26.367Z,4.85
2023-02-22T05:58:53.119Z,4.86
2023-02-22T06:01:23.172Z,4.80
2023-02-22T06:03:50.516Z,4.78
2023-02-22T06:06:20.516Z,4.82
2023-02-22T06:08:48.561Z,4.85
2023-02-22T06:11:15.208Z,4.85
2023-02-22T06:13:42.337Z,4.85
2023-02-22T06:16:08.918Z,4.85
2023-02-22T06:18:36.492Z,4.86
2023-02-22T06:21:03.354Z,4.79
2023-02-22T06:23:30.129Z,4.87
2023-02-22T06:25:57.105Z,4.81
2023-02-22T06:28:23.890Z,4.76
2023-02-22T06:30:50.712Z,4.79
2023-02-22T06:33:17.646Z,4.82
2023-02-22T06:35:45.288Z,4.78
2023-02-22T06:38:11.905Z,4.82
2023-02-22T06:40:38.690Z,4.86
2023-02-22T06:43:05.264Z,4.89
2023-02-22T06:45:31.972Z,4.89
2023-02-22T06:47:58.713Z,4.94
2023-02-22T06:50:30.211Z,4.99
2023-02-22T06:52:57.711Z,5.09
2023-02-22T06:55:27.702Z,5.16
2023-02-22T06:57:55.103Z,5.18
2023-02-22T07:00:25.100Z,5.26
2023-02-22T07:02:53.801Z,5.26
2023-02-22T07:05:22.626Z,5.42
2023-02-22T07:07:52.634Z,5.47
2023-02-22T07:10:26.313Z,5.56
2023-02-22T07:12:53.199Z,5.62
2023-02-22T07:15:23.539Z,5.67
2023-02-22T07:17:51.262Z,5.79
2023-02-22T07:20:20.945Z,5.83
2023-02-22T07:22:48.984Z,5.92
2023-02-22T07:25:15.720Z,5.95
2023-02-22T07:27:43.308Z,5.98
2023-02-22T07:30:31.088Z,6.08
2023-02-22T07:33:00.651Z,6.12
2023-02-22T07:35:31.564Z,6.18
2023-02-22T07:37:58.138Z,6.22
2023-02-22T07:40:26.420Z,6.21
2023-02-22T07:43:06.830Z,6.23
2023-02-22T07:45:36.028Z,6.19
2023-02-22T07:48:07.315Z,6.18
2023-02-22T07:50:34.963Z,6.23
2023-02-22T07:53:05.946Z,6.25
2023-02-22T07:55:33.672Z,6.40
2023-02-22T07:58:04.431Z,6.46
2023-02-22T08:00:37.385Z,6.60
2023-02-22T08:03:07.502Z,6.66
2023-02-22T08:05:36.292Z,6.80
2023-02-22T08:08:03.808Z,6.87
2023-02-22T08:10:31.453Z,6.91
2023-02-22T08:12:58.384Z,6.91
2023-02-22T08:15:26.599Z,7.02
2023-02-22T08:17:53.724Z,7.03
2023-02-22T08:20:21.055Z,7.09
2023-02-22T08:22:48.205Z,7.15
2023-02-22T08:25:17.250Z,7.26
2023-02-22T08:27:45.310Z,7.35
2023-02-22T08:30:20.732Z,7.39
2023-02-22T08:32:47.665Z,7.44
2023-02-22T08:35:15.567Z,7.53
2023-02-22T08:37:44.364Z,7.62
2023-02-22T08:40:13.955Z,7.71
2023-02-22T08:42:41.416Z,7.77
2023-02-22T08:45:08.388Z,7.84
2023-02-22T08:47:34.910Z,7.97
2023-02-22T08:50:01.772Z,8.08
2023-02-22T08:52:28.405Z,8.18
2023-02-22T08:54:55.823Z,8.27
2023-02-22T08:57:22.623Z,8.33
2023-02-22T08:59:49.289Z,8.32
2023-02-22T09:02:17.836Z,8.29
2023-02-22T09:04:44.950Z,8.26
2023-02-22T09:07:12.815Z,8.28
2023-02-22T09:09:39.353Z,8.28
2023-02-22T09:12:06.017Z,8.32
2023-02-22T09:14:32.548Z,8.33
2023-02-22T09:16:58.974Z,8.32
2023-02-22T09:19:25.560Z,8.36
2023-02-22T09:22:00.085Z,8.44
2023-02-22T09:24:27.388Z,8.41
2023-02-22T09:26:54.395Z,8.46
2023-02-22T09:29:25.836Z,8.45
2023-02-22T09:31:55.391Z,8.50
2023-02-22T09:34:29.797Z,8.62
2023-02-22T09:36:57.997Z,8.74
2023-02-22T09:39:24.965Z,8.86
2023-02-22T09:42:17.532Z,8.96
2023-02-22T09:44:49.532Z,9.13
2023-02-22T09:47:21.937Z,9.18
2023-02-22T09:49:58.639Z,9.26
2023-02-22T09:52:30.848Z,9.47
2023-02-22T09:55:09.200Z,9.69
2023-02-22T09:57:40.816Z,9.80
2023-02-22T10:00:18.207Z,9.93
2023-02-22T10:02:53.846Z,10.05
2023-02-22T10:05:29.855Z,10.24
2023-02-22T10:08:08.411Z,10.49
2023-02-22T10:10:39.283Z,10.64
2023-02-22T10:13:18.122Z,10.79
2023-02-22T10:16:17.216Z,10.88
2023-02-22T10:19:08.000Z,11.05
2023-02-22T10:21:57.574Z,11.26
2023-02-22T10:24:39.648Z,11.44
2023-02-22T10:27:11.873Z,11.57
2023-02-22T10:29:46.528Z,11.80
2023-02-22T10:32:26.056Z,11.93
2023-02-22T10:34:54.649Z,12.13
2023-02-22T10:37:31.093Z,12.24
2023-02-22T10:40:17.447Z,12.45
2023-02-22T10:42:44.590Z,12.62
2023-02-22T10:45:26.813Z,12.72
2023-02-22T10:47:58.858Z,12.81
2023-02-22T10:50:29.648Z,12.78
2023-02-22T10:52:56.459Z,12.77
2023-02-22T10:55:23.154Z,12.71
2023-02-22T10:57:59.098Z,12.76
2023-02-22T11:00:39.749Z,12.79
2023-02-22T11:03:17.982Z,12.76
2023-02-22T11:05:45.016Z,12.73
2023-02-22T11:08:20.834Z,12.72
2023-02-22T11:10:56.735Z,12.86
2023-02-22T11:13:37.506Z,12.88
2023-02-22T11:16:32.679Z,12.82
2023-02-22T11:19:20.660Z,12.80
2023-02-22T11:21:51.522Z,12.88
2023-02-22T11:24:20.019Z,12.99
2023-02-22T11:26:51.641Z,13.19
2023-02-22T11:29:23.267Z,13.26
2023-02-22T11:31:50.633Z,13.23
2023-02-22T11:34:38.149Z,13.30
2023-02-22T11:37:29.928Z,13.40
2023-02-22T11:40:24.949Z,13.45
2023-02-22T11:43:16.062Z,13.28
2023-02-22T11:46:05.973Z,13.39
2023-02-22T11:48:36.637Z,13.40
2023-02-22T11:51:07.673Z,13.30
2023-02-22T11:53:34.106Z,13.30
2023-02-22T11:56:13.977Z,13.44
2023-02-22T11:58:40.581Z,13.46
2023-02-22T12:01:19.999Z,13.45
2023-02-22T12:04:17.347Z,13.67
2023-02-22T12:06:57.120Z,13.93
2023-02-22T12:09:33.177Z,14.07
2023-02-22T12:12:29.710Z,14.23
2023-02-22T12:15:13.974Z,14.37
2023-02-22T12:18:00.487Z,14.11
2023-02-22T12:20:47.742Z,13.88
2023-02-22T12:23:50.991Z,13.92
2023-02-22T12:26:26.455Z,14.40
2023-02-22T12:28:59.432Z,14.69
2023-02-22T12:31:33.989Z,14.96
2023-02-22T12:34:19.945Z,15.16
2023-02-22T12:36:51.823Z,15.16
2023-02-22T12:39:29.299Z,14.92
2023-02-22T12:42:01.032Z,14.65
2023-02-22T12:44:40.123Z,14.50
2023-02-22T12:47:14.410Z,14.41
2023-02-22T12:50:00.582Z,14.47
2023-02-22T12:52:47.304Z,14.38
2023-02-22T12:55:17.493Z,14.27
2023-02-22T12:58:27.644Z,14.27
2023-02-22T13:01:21.323Z,14.19
2023-02-22T13:03:49.429Z,14.10
2023-02-22T13:06:34.995Z,14.07
2023-02-22T13:09:27.076Z,14.23
2023-02-22T13:12:12.426Z,14.21
2023-02-22T13:14:52.299Z,14.24
2023-02-22T13:17:45.334Z,14.26
2023-02-22T13:20:26.797Z,14.27
2023-02-22T13:23:07.517Z,14.31
2023-02-22T13:25:48.107Z,14.26
2023-02-22T13:28:41.688Z,14.46
2023-02-22T13:31:30.241Z,14.57
2023-02-22T13:34:01.385Z,14.62
2023-02-22T13:36:37.749Z,14.72
2023-02-22T13:39:27.967Z,14.98
2023-02-22T13:42:09.387Z,15.10
2023-02-22T13:45:04.202Z,15.18
2023-02-22T13:48:09.384Z,15.22
2023-02-22T13:50:58.324Z,15.22
2023-02-22T13:53:36.861Z,15.19
2023-02-22T13:56:04.194Z,15.12
2023-02-22T13:58:31.077Z,15.13
2023-02-22T14:01:00.031Z,15.15
2023-02-22T14:03:36.401Z,15.11
2023-02-22T14:06:06.376Z,15.05
2023-02-22T14:08:34.134Z,14.97
2023-02-22T14:11:01.138Z,14.74
2023-02-22T14:13:29.905Z,14.50
2023-02-22T14:16:02.728Z,14.32
2023-02-22T14:18:32.659Z,14.12
2023-02-22T14:21:20.437Z,14.02
2023-02-22T14:23:50.005Z,13.96
2023-02-22T14:26:38.255Z,13.96
2023-02-22T14:29:19.066Z,13.95
2023-02-22T14:31:52.814Z,13.91
2023-02-22T14:34:38.710Z,13.88
2023-02-22T14:37:28.753Z,13.83
2023-02-22T14:40:22.616Z,13.75
2023-02-22T14:42:58.419Z,13.68
2023-02-22T14:45:30.101Z,13.64
2023-02-22T14:48:01.441Z,13.61
2023-02-22T14:50:46.143Z,13.61
2023-02-22T14:53:12.539Z,13.59
2023-02-22T14:55:44.199Z,13.57
2023-02-22T14:58:21.843Z,13.58
2023-02-22T15:00:52.895Z,13.56
2023-02-22T15:03:22.702Z,13.55
2023-02-22T15:05:52.039Z,13.55
2023-02-22T15:08:27.424Z,13.51
2023-02-22T15:10:54.770Z,13.45
2023-02-22T15:13:27.632Z,13.40
2023-02-22T15:16:00.481Z,13.35
2023-02-22T15:18:36.117Z,13.29
2023-02-22T15:21:18.379Z,13.24
2023-02-22T15:23:53.899Z,13.20
2023-02-22T15:26:30.162Z,13.21
2023-02-22T15:28:58.693Z,13.17
2023-02-22T15:31:27.569Z,13.14
2023-02-22T15:33:55.361Z,13.10
2023-02-22T15:36:27.830Z,13.07
2023-02-22T15:38:59.903Z,13.06
2023-02-22T15:41:31.749Z,13.03
2023-02-22T15:44:01.776Z,12.99
2023-02-22T15:46:31.181Z,12.96
2023-02-22T15:49:11.674Z,12.92
2023-02-22T15:51:41.492Z,12.88
2023-02-22T15:54:26.483Z,12.85
2023-02-22T15:56:57.919Z,12.83
2023-02-22T15:59:30.471Z,12.76
2023-02-22T16:01:58.808Z,12.71
2023-02-22T16:04:29.312Z,12.71
2023-02-22T16:07:07.807Z,12.65
2023-02-22T16:09:34.565Z,12.66
2023-02-22T16:12:28.004Z,12.64
2023-02-22T16:14:55.654Z,12.60
2023-02-22T16:17:25.959Z,12.53
2023-02-22T16:19:53.269Z,12.49
2023-02-22T16:22:34.682Z,12.47
2023-02-22T16:25:19.140Z,12.44
2023-02-22T16:27:57.851Z,12.44
2023-02-22T16:30:34.354Z,12.38
2023-02-22T16:33:05.530Z,12.37
2023-02-22T16:35:35.478Z,12.33
2023-02-22T16:38:07.610Z,12.27
2023-02-22T16:40:44.805Z,12.19
2023-02-22T16:43:20.601Z,12.19
2023-02-22T16:45:50.322Z,12.16
2023-02-22T16:48:24.195Z,12.13
2023-02-22T16:50:52.610Z,12.10
2023-02-22T16:53:22.257Z,11.97
2023-02-22T16:55:50.974Z,11.94
2023-02-22T16:58:19.500Z,11.83
2023-02-22T17:00:45.943Z,11.78
2023-02-22T17:03:18.132Z,11.72
2023-02-22T17:05:45.232Z,11.66
2023-02-22T17:08:11.837Z,11.60
2023-02-22T17:10:38.739Z,11.56
2023-02-22T17:13:21.311Z,11.57
2023-02-22T17:15:49.415Z,11.55
2023-02-22T17:18:22.729Z,11.55
2023-02-22T17:20:51.135Z,11.53
2023-02-22T17:23:19.157Z,11.50
2023-02-22T17:25:59.326Z,11.48
2023-02-22T17:28:27.184Z,11.45
2023-02-22T17:31:00.801Z,11.38
2023-02-22T17:33:39.995Z,11.34
2023-02-22T17:36:07.273Z,11.31
2023-02-22T17:38:34.914Z,11.28
2023-02-22T17:41:01.960Z,11.28
2023-02-22T17:43:29.016Z,11.28
2023-02-22T17:45:56.488Z,11.26
2023-02-22T17:48:24.292Z,11.23
2023-02-22T17:50:52.112Z,11.24
2023-02-22T17:53:22.667Z,11.23
2023-02-22T17:55:49.728Z,11.27
2023-02-22T17:58:17.203Z,11.23
2023-02-22T18:00:50.102Z,11.20
2023-02-22T18:03:39.590Z,11.17
2023-02-22T18:06:06.887Z,11.13
2023-02-22T18:08:33.686Z,11.06
2023-02-22T18:11:05.512Z,11.09
2023-02-22T18:13:32.871Z,11.05
2023-02-22T18:16:00.220Z,11.01
2023-02-22T18:18:27.114Z,11.01
2023-02-22T18:20:59.412Z,10.96
2023-02-22T18:23:28.321Z,10.91
2023-02-22T18:26:09.690Z,10.88
2023-02-22T18:28:37.662Z,10.86
2023-02-22T18:31:24.272Z,10.86
2023-02-22T18:33:52.997Z,10.81
2023-02-22T18:36:33.489Z,10.75
2023-02-22T18:39:00.262Z,10.74
2023-02-22T18:41:27.049Z,10.67
2023-02-22T18:43:57.958Z,10.62
2023-02-22T18:46:25.111Z,10.55
2023-02-22T18:48:56.217Z,10.53
2023-02-22T18:51:24.244Z,10.53
2023-02-22T18:53:57.126Z,10.45
2023-02-22T18:56:25.624Z,10.45
2023-02-22T18:58:57.356Z,10.38
2023-02-22T19:01:24.307Z,10.39
2023-02-22T19:03:52.219Z,10.37
2023-02-22T19:06:22.620Z,10.35
2023-02-22T19:08:52.238Z,10.32
2023-02-22T19:11:27.422Z,10.30
2023-02-22T19:13:57.600Z,10.24
2023-02-22T19:16:26.826Z,10.24
2023-02-22T19:18:57.212Z,10.18
2023-02-22T19:21:28.358Z,10.19
2023-02-22T19:23:55.357Z,10.14
2023-02-22T19:26:24.843Z,10.11
2023-02-22T19:29:01.704Z,10.10
2023-02-22T19:31:34.099Z,10.12
2023-02-22T19:34:13.596Z,10.10
2023-02-22T19:36:45.140Z,10.08
2023-02-22T19:39:13.495Z,10.03
2023-02-22T19:41:40.315Z,10.02
2023-02-22T19:44:10.478Z,10.01
2023-02-22T19:46:37.867Z,10.02
2023-02-22T19:49:06.464Z,10.00
2023-02-22T19:51:34.127Z,10.01
2023-02-22T19:54:05.095Z,10.02
2023-02-22T19:56:32.630Z,10.01
2023-02-22T19:59:03.198Z,9.97
2023-02-22T20:01:33.232Z,9.91
2023-02-22T20:04:08.500Z,9.93
2023-02-22T20:06:40.348Z,9.87
2023-02-22T20:09:09.613Z,9.84
2023-02-22T20:11:36.414Z,9.84
2023-02-22T20:14:06.690Z,9.82
2023-02-22T20:16:34.703Z,9.82
2023-02-22T20:19:01.732Z,9.82
2023-02-22T20:21:31.793Z,9.82
2023-02-22T20:24:10.712Z,9.78
2023-02-22T20:26:38.869Z,9.78
2023-02-22T20:29:09.694Z,9.75
2023-02-22T20:31:38.318Z,9.73
2023-02-22T20:34:09.810Z,9.73
2023-02-22T20:36:39.016Z,9.71
2023-02-22T20:39:13.626Z,9.64
2023-02-22T20:41:46.268Z,9.62
2023-02-22T20:44:15.357Z,9.56
2023-02-22T20:46:43.353Z,9.55
2023-02-22T20:49:15.127Z,9.53
2023-02-22T20:51:42.061Z,9.56
2023-02-22T20:54:12.346Z,9.55
2023-02-22T20:56:42.478Z,9.53
2023-02-22T20:59:12.823Z,9.49
2023-02-22T21:01:39.716Z,9.47
2023-02-22T21:04:08.214Z,9.45
2023-02-22T21:06:37.545Z,9.41
2023-02-22T21:09:08.057Z,9.37
2023-02-22T21:11:35.437Z,9.36
2023-02-22T21:14:02.979Z,9.35
2023-02-22T21:16:33.396Z,9.31
2023-02-22T21:19:02.822Z,9.29
2023-02-22T21:21:30.236Z,9.29
2023-02-22T21:24:01.795Z,9.26
2023-02-22T21:26:32.365Z,9.26
2023-02-22T21:29:06.765Z,9.25
2023-02-22T21:31:34.603Z,9.24
2023-02-22T21:34:01.893Z,9.21
2023-02-22T21:36:29.362Z,9.20
2023-02-22T21:38:58.565Z,9.22
2023-02-22T21:41:29.259Z,9.19
2023-02-22T21:43:58.447Z,9.17
2023-02-22T21:46:27.721Z,9.15
2023-02-22T21:48:57.930Z,9.11
2023-02-22T21:51:33.354Z,9.07
2023-02-22T21:54:07.111Z,9.05
2023-02-22T21:56:39.992Z,9.02
2023-02-22T21:59:11.758Z,8.99
2023-02-22T22:01:47.526Z,9.00
2023-02-22T22:04:18.990Z,9.01
2023-02-22T22:06:51.653Z,8.98
2023-02-22T22:09:19.690Z,8.94
2023-02-22T22:11:53.347Z,8.89
2023-02-22T22:14:24.000Z,8.89
2023-02-22T22:16:53.036Z,8.86
2023-02-22T22:19:20.266Z,8.83
2023-02-22T22:21:47.155Z,8.84
2023-02-22T22:24:13.829Z,8.83
2023-02-22T22:26:40.709Z,8.79
2023-02-22T22:29:10.448Z,8.81
2023-02-22T22:31:37.979Z,8.72
2023-02-22T22:34:05.295Z,8.75
2023-02-22T22:36:34.343Z,8.71
2023-02-22T22:39:01.282Z,8.68
2023-02-22T22:41:28.376Z,8.65
2023-02-22T22:43:55.742Z,8.62
2023-02-22T22:46:22.649Z,8.66
2023-02-22T22:48:49.453Z,8.67
2023-02-22T22:51:20.459Z,8.66
2023-02-22T22:53:48.861Z,8.64
2023-02-22T22:56:18.754Z,8.62
2023-02-22T22:58:50.700Z,8.64
2023-02-22T23:01:20.339Z,8.65
2023-02-22T23:03:55.205Z,8.64
2023-02-22T23:06:30.877Z,8.65
2023-02-22T23:09:02.594Z,8.66
2023-02-22T23:11:34.116Z,8.64
2023-02-22T23:14:03.883Z,8.66
2023-02-22T23:16:32.486Z,8.66
2023-02-22T23:18:59.605Z,8.64
2023-02-22T23:21:27.471Z,8.60
2023-02-22T23:23:59.035Z,8.55
2023-02-22T23:26:26.956Z,8.58
2023-02-22T23:28:57.645Z,8.58
2023-02-22T23:31:27.108Z,8.59
2023-02-22T23:33:55.674Z,8.60
2023-02-22T23:36:22.516Z,8.55
2023-02-22T23:38:49.095Z,8.55
2023-02-22T23:41:17.503Z,8.54
2023-02-22T23:43:45.388Z,8.46
2023-02-22T23:46:18.418Z,8.52
2023-02-22T23:48:54.794Z,8.56
2023-02-22T23:51:28.687Z,8.59
2023-02-22T23:53:56.775Z,8.62
2023-02-22T23:56:26.580Z,8.65
2023-02-22T23:58:57.631Z,8.66
